PWSweather.com
Personal Weather Stations
Station Observations
SANDHURSTWX
SandhurstGB

SandhurstGB

Lat: 51.3522, Lon: -0.7739

Elevation: 272.3

Station Type: Davis VP2

www.sandhurstweather.org.uk

High Low Average
Temperature 71.4°F21.9°C 54.4°F12.4°C 63.6°F17.6°C
Dew Point 54.8°F12.7°C 51.3°F10.7°C 52.6°F11.4°C
Winds 11.5 mph 18.5 kmh Calm Calm 4.0 mph W6.4 kmh W
Wind Gusts 18.4 mph29.6 kmh -- 6.0 mph9.7 kmh
Humidity 91% 53% 69%
Pressure 30.24 in1024.0 mb 30.06 in1017.9 mb -
Precipitation 0.00 in0.0 mm - -
Hour Temp Dew Point Humidity Winds Wind Gusts Pressure Precip Precip Rate Daily Precip Total
12:00 AM 57.7°F14.3°C 51.5°F10.8°C 80% Calm Calm -- 30.07 in1018.3 mb - 0.00 in0.0 mm 0.00 in0.0 mm
01:00 AM 56.3°F13.5°C 51.5°F10.8°C 84% Calm Calm 2.3 mph3.7 kmh 30.07 in1018.3 mb - 0.00 in0.0 mm 0.00 in0.0 mm
02:00 AM 55.1°F12.8°C 51.3°F10.7°C 87% 1.2 mph SW1.9 kmh SW 2.3 mph3.7 kmh 30.06 in1017.9 mb - 0.00 in0.0 mm 0.00 in0.0 mm
03:00 AM 54.7°F12.6°C 51.5°F10.8°C 89% 1.2 mph SSW1.9 kmh SSW 1.2 mph1.9 kmh 30.07 in1018.3 mb - 0.00 in0.0 mm 0.00 in0.0 mm
04:00 AM 54.4°F12.4°C 51.5°F10.8°C 90% 1.2 mph SSW1.9 kmh SSW 1.2 mph1.9 kmh 30.07 in1018.3 mb - 0.00 in0.0 mm 0.00 in0.0 mm
05:00 AM 56.0°F13.3°C 53.4°F11.9°C 91% 2.3 mph WSW3.7 kmh WSW 3.5 mph5.6 kmh 30.08 in1018.6 mb - 0.00 in0.0 mm 0.00 in0.0 mm
06:00 AM 58.3°F14.6°C 53.2°F11.8°C 83% 3.5 mph WSW5.6 kmh WSW 4.6 mph7.4 kmh 30.09 in1019.0 mb - 0.00 in0.0 mm 0.00 in0.0 mm
07:00 AM 60.1°F15.6°C 53.6°F12.0°C 79% 3.5 mph NW5.6 kmh NW 3.5 mph5.6 kmh 30.10 in1019.3 mb - 0.00 in0.0 mm 0.00 in0.0 mm
08:00 AM 63.0°F17.2°C 51.5°F10.8°C 66% 11.5 mph WNW18.5 kmh WNW 12.7 mph20.4 kmh 30.11 in1019.6 mb - 0.00 in0.0 mm 0.00 in0.0 mm
09:00 AM 65.7°F18.7°C 51.4°F10.8°C 60% 9.2 mph WNW14.8 kmh WNW 18.4 mph29.6 kmh 30.12 in1020.0 mb - 0.00 in0.0 mm 0.00 in0.0 mm
10:00 AM 66.8°F19.3°C 52.0°F11.1°C 59% 5.8 mph NW9.3 kmh NW 9.2 mph14.8 kmh 30.11 in1019.6 mb - 0.00 in0.0 mm 0.00 in0.0 mm
11:00 AM 68.9°F20.5°C 52.5°F11.4°C 56% 8.1 mph NW13.0 kmh NW 12.7 mph20.4 kmh 30.13 in1020.3 mb - 0.00 in0.0 mm 0.00 in0.0 mm
12:00 PM 69.8°F21.0°C 52.4°F11.3°C 54% 5.8 mph WNW9.3 kmh WNW 6.9 mph11.1 kmh 30.14 in1020.7 mb - 0.00 in0.0 mm 0.00 in0.0 mm
01:00 PM 69.7°F20.9°C 52.8°F11.6°C 55% 5.8 mph W9.3 kmh W 9.2 mph14.8 kmh 30.14 in1020.7 mb - 0.00 in0.0 mm 0.00 in0.0 mm
02:00 PM 71.4°F21.9°C 53.4°F11.9°C 53% 2.3 mph NW3.7 kmh NW 9.2 mph14.8 kmh 30.14 in1020.7 mb - 0.00 in0.0 mm 0.00 in0.0 mm
03:00 PM 70.5°F21.4°C 53.6°F12.0°C 55% 3.5 mph NW5.6 kmh NW 5.8 mph9.3 kmh 30.14 in1020.7 mb - 0.00 in0.0 mm 0.00 in0.0 mm
04:00 PM 69.2°F20.7°C 52.9°F11.6°C 56% 5.8 mph NW9.3 kmh NW 8.1 mph13.0 kmh 30.15 in1021.0 mb - 0.00 in0.0 mm 0.00 in0.0 mm
05:00 PM 69.0°F20.6°C 53.6°F12.0°C 58% 6.9 mph NW11.1 kmh NW 10.4 mph16.7 kmh 30.15 in1021.0 mb - 0.00 in0.0 mm 0.00 in0.0 mm
06:00 PM 69.8°F21.0°C 54.8°F12.7°C 59% 4.6 mph NW7.4 kmh NW 5.8 mph9.3 kmh 30.16 in1021.3 mb - 0.00 in0.0 mm 0.00 in0.0 mm
07:00 PM 67.9°F19.9°C 53.5°F11.9°C 60% 3.5 mph NW5.6 kmh NW 8.1 mph13.0 kmh 30.17 in1021.7 mb - 0.00 in0.0 mm 0.00 in0.0 mm
08:00 PM 65.6°F18.7°C 52.6°F11.4°C 63% 2.3 mph NW3.7 kmh NW 3.5 mph5.6 kmh 30.18 in1022.0 mb - 0.00 in0.0 mm 0.00 in0.0 mm
09:00 PM 64.6°F18.1°C 53.0°F11.7°C 66% 3.5 mph NW5.6 kmh NW 8.1 mph13.0 kmh 30.20 in1022.7 mb - 0.00 in0.0 mm 0.00 in0.0 mm
10:00 PM 62.6°F17.0°C 53.1°F11.7°C 71% 1.2 mph NW1.9 kmh NW 2.3 mph3.7 kmh 30.22 in1023.4 mb - 0.00 in0.0 mm 0.00 in0.0 mm
11:00 PM 60.5°F15.8°C 52.2°F11.2°C 74% 1.2 mph NW1.9 kmh NW 3.5 mph5.6 kmh 30.24 in1024.0 mb - 0.00 in0.0 mm 0.00 in0.0 mm